Time;durP1;ratioP1;P1;durP2;ratioP2;P2;SDS_P1;SDS_P2;PMS_P1;PMS_P2;Temp;Humidity;BMP_temperature;BMP_pressure;BME280_temperature;BME280_humidity;BME280_pressure;Samples;Min_cycle;Max_cycle;Signal;HPM_P1;HPM_P2
2024/01/15 00:01:23;;;;;;;9.67;2.20;;;3.80;94.80;;;5.22;66.88;99509.69;3082856;46;20496;-66
2024/01/15 00:03:52;;;;;;;5.73;1.20;;;3.80;94.70;;;5.23;67.14;99506.09;3082592;46;20459;-67
2024/01/15 00:06:20;;;;;;;4.60;1.40;;;3.80;94.80;;;5.25;66.99;99506.72;3082527;46;20428;-70
2024/01/15 00:08:49;;;;;;;2.97;1.23;;;3.80;94.80;;;5.25;66.93;99495.50;3082279;46;20450;-67
2024/01/15 00:11:18;;;;;;;6.93;2.00;;;3.80;94.80;;;5.25;66.91;99496.28;3082338;46;20465;-67
2024/01/15 00:13:46;;;;;;;6.07;1.67;;;3.80;94.80;;;5.24;66.73;99484.25;3082695;46;20454;-67
2024/01/15 00:16:15;;;;;;;5.97;1.93;;;3.80;94.70;;;5.23;66.74;99487.81;3082784;46;20459;-67
2024/01/15 00:18:43;;;;;;;4.70;1.57;;;3.70;95.00;;;5.23;66.82;99487.03;3082006;46;20465;-66
2024/01/15 00:21:11;;;;;;;4.47;1.40;;;3.70;94.70;;;5.23;66.58;99466.97;3082303;46;20427;-67
2024/01/15 00:23:46;;;;;;;9.33;1.97;;;3.70;94.60;;;5.26;66.70;99471.03;3082745;46;20437;-67
2024/01/15 00:26:15;;;;;;;6.43;1.97;;;3.80;94.70;;;5.30;66.63;99486.16;3082109;46;20463;-67
2024/01/15 00:28:43;;;;;;;12.40;2.00;;;3.80;94.70;;;5.37;66.59;99474.06;3081990;46;20442;-67
2024/01/15 00:31:12;;;;;;;10.10;1.70;;;3.80;94.80;;;5.47;66.55;99485.09;3082125;46;20528;-67
2024/01/15 00:33:40;;;;;;;4.37;2.00;;;3.80;94.70;;;5.53;66.23;99464.50;3082627;46;21075;-67
2024/01/15 00:36:09;;;;;;;4.27;1.53;;;3.90;94.70;;;5.61;66.29;99461.84;3082399;46;20450;-67
2024/01/15 00:38:37;;;;;;;7.07;1.93;;;3.90;94.60;;;5.67;66.12;99466.34;3081673;46;20461;-67
2024/01/15 00:41:06;;;;;;;8.50;2.30;;;4.00;94.60;;;5.68;65.80;99468.00;3082569;46;20993;-67
2024/01/15 00:43:34;;;;;;;6.00;2.00;;;4.00;94.70;;;5.70;65.74;99466.84;3082076;46;20513;-67
2024/01/15 00:46:03;;;;;;;4.37;1.83;;;4.10;94.40;;;5.74;65.68;99475.13;3082348;46;20458;-67
2024/01/15 00:48:32;;;;;;;8.13;1.60;;;4.10;94.10;;;5.78;65.70;99466.75;3081371;46;20518;-67
2024/01/15 00:51:01;;;;;;;11.00;2.77;;;4.10;94.10;;;5.84;65.45;99465.25;3081996;46;20427;-67
2024/01/15 00:53:30;;;;;;;5.83;1.83;;;4.10;93.90;;;5.90;65.05;99459.34;3082477;46;20438;-67
2024/01/15 00:55:58;;;;;;;7.70;1.60;;;4.20;93.90;;;5.95;65.08;99454.41;3081919;46;20445;-67
2024/01/15 00:58:27;;;;;;;10.13;1.97;;;4.20;93.80;;;5.97;64.68;99439.38;3080695;46;20450;-67
2024/01/15 01:00:55;;;;;;;9.27;1.60;;;4.30;93.80;;;5.99;64.57;99453.09;3082094;46;20434;-67
2024/01/15 01:03:23;;;;;;;6.33;1.80;;;4.30;93.80;;;6.00;64.70;99445.06;3081808;46;21044;-67
2024/01/15 01:05:52;;;;;;;11.00;1.40;;;4.30;93.80;;;6.00;64.47;99433.81;3081984;46;20579;-69
2024/01/15 01:08:20;;;;;;;11.13;1.93;;;4.40;93.70;;;5.98;64.43;99447.06;3081533;46;20524;-67
2024/01/15 01:10:49;;;;;;;9.50;2.00;;;4.40;93.60;;;5.98;64.50;99443.63;3081775;46;20434;-67
2024/01/15 01:13:17;;;;;;;7.57;1.70;;;4.40;93.60;;;5.98;64.49;99435.78;3081943;46;20497;-67
2024/01/15 01:15:45;;;;;;;6.60;2.03;;;4.30;93.60;;;6.00;64.52;99433.81;3081993;46;20492;-66
2024/01/15 01:18:14;;;;;;;7.33;1.83;;;4.40;93.70;;;6.01;64.54;99425.00;3081482;46;20451;-67
2024/01/15 01:20:43;;;;;;;3.40;1.50;;;4.40;93.70;;;6.02;64.46;99426.59;3082012;46;20518;-67
2024/01/15 01:23:12;;;;;;;5.53;1.50;;;4.40;93.80;;;6.07;64.50;99429.50;3082147;46;20577;-67
2024/01/15 01:25:40;;;;;;;4.53;1.30;;;4.40;93.90;;;6.11;64.54;99415.09;3082031;46;20427;-67
2024/01/15 01:28:09;;;;;;;5.80;1.70;;;4.40;93.90;;;6.12;64.62;99424.56;3081530;46;20948;-67
2024/01/15 01:30:37;;;;;;;7.67;1.17;;;4.50;94.00;;;6.12;64.61;99427.97;3081648;46;20434;-66
2024/01/15 01:33:06;;;;;;;4.77;1.27;;;4.40;94.00;;;6.14;64.60;99419.97;3081273;46;20497;-67
2024/01/15 01:35:34;;;;;;;4.20;1.67;;;4.50;94.10;;;6.13;64.76;99413.13;3081904;46;20517;-65
2024/01/15 01:38:03;;;;;;;4.70;1.40;;;4.40;94.10;;;6.09;64.66;99425.72;3081327;46;20461;-67
2024/01/15 01:40:31;;;;;;;3.00;1.30;;;4.40;94.10;;;6.03;64.70;99423.00;3082001;46;20434;-67
2024/01/15 01:43:00;;;;;;;9.77;1.40;;;4.40;94.10;;;5.99;64.87;99416.53;3081733;46;20486;-67
2024/01/15 01:45:28;;;;;;;4.43;1.23;;;4.40;94.30;;;5.93;65.11;99418.03;3081948;46;20451;-67
2024/01/15 01:47:56;;;;;;;4.27;1.53;;;4.40;94.30;;;5.90;65.29;99417.56;3081065;46;20452;-69
2024/01/15 01:50:25;;;;;;;2.97;1.20;;;4.30;94.40;;;5.87;65.47;99423.16;3081415;46;20423;-67
2024/01/15 01:52:53;;;;;;;5.60;1.40;;;4.30;94.50;;;5.86;65.65;99432.78;3080423;46;20446;-67
2024/01/15 01:55:27;;;;;;;2.97;1.00;;;4.30;94.70;;;5.87;65.75;99433.63;3081704;46;20458;-67
2024/01/15 01:57:56;;;;;;;7.57;1.63;;;4.20;94.70;;;5.87;65.74;99423.16;3080539;46;20470;-67
2024/01/15 02:00:24;;;;;;;4.67;1.50;;;4.20;94.70;;;5.86;65.94;99419.75;3080938;46;20438;-67
2024/01/15 02:02:53;;;;;;;4.87;1.87;;;4.20;94.80;;;5.87;65.98;99407.50;3081728;46;20434;-67
2024/01/15 02:05:22;;;;;;;8.37;1.33;;;4.20;95.00;;;5.88;66.09;99414.34;3081851;46;20504;-67
2024/01/15 02:07:51;;;;;;;4.30;2.00;;;4.20;95.10;;;5.87;66.24;99410.91;3081383;46;20478;-68
2024/01/15 02:10:19;;;;;;;7.30;1.70;;;4.20;95.20;;;5.83;66.36;99406.19;3081325;46;20467;-66
2024/01/15 02:12:48;;;;;;;5.53;1.60;;;4.20;95.20;;;5.79;66.41;99404.94;3081139;46;20429;-67
2024/01/15 02:15:16;;;;;;;3.27;1.20;;;4.20;95.10;;;5.73;66.47;99408.25;3081391;46;20582;-67
2024/01/15 02:18:06;;;;;;;7.47;2.40;;;4.20;95.10;;;5.65;66.64;99395.25;3080939;46;20496;-67
2024/01/15 02:20:36;;;;;;;5.27;1.40;;;4.10;95.10;;;5.64;67.02;99398.84;3081236;46;20431;-67
2024/01/15 02:23:13;;;;;;;5.50;1.43;;;4.10;95.30;;;5.63;67.06;99394.63;3081441;46;20515;-67
2024/01/15 02:25:47;;;;;;;6.27;1.93;;;4.10;95.40;;;5.68;67.59;99397.53;3080720;46;20560;-68
2024/01/15 02:28:17;;;;;;;8.13;1.73;;;4.10;95.50;;;5.73;67.30;99400.44;3080774;46;20478;-67
2024/01/15 02:30:46;;;;;;;5.97;2.20;;;4.10;95.60;;;5.78;67.46;99392.84;3081281;46;20975;-66
2024/01/15 02:33:14;;;;;;;8.10;2.17;;;4.10;95.60;;;5.84;67.36;99381.72;3081036;46;20523;-69
2024/01/15 02:35:43;;;;;;;10.57;2.80;;;4.20;95.60;;;5.87;67.24;99389.22;3081296;46;20454;-69
2024/01/15 02:38:11;;;;;;;8.27;1.97;;;4.20;95.60;;;5.93;67.19;99391.94;3080599;46;20443;-67
2024/01/15 02:40:39;;;;;;;6.33;2.03;;;4.20;95.50;;;5.98;67.05;99384.38;3081176;46;20468;-67
2024/01/15 02:43:08;;;;;;;3.97;1.80;;;4.20;95.80;;;5.99;67.21;99387.81;3081226;46;20503;-67
2024/01/15 02:45:36;;;;;;;7.37;1.70;;;4.30;95.50;;;6.02;66.98;99395.25;3083194;46;20516;-67
2024/01/15 02:48:06;;;;;;;11.43;1.97;;;4.30;95.40;;;6.03;66.87;99394.28;3083036;46;20535;-67
2024/01/15 02:50:34;;;;;;;8.87;1.90;;;4.30;95.40;;;6.04;66.89;99390.66;3083373;46;20501;-67
2024/01/15 02:53:03;;;;;;;11.37;2.23;;;4.30;95.30;;;6.06;66.87;99410.41;3083519;46;20433;-67
2024/01/15 02:55:31;;;;;;;6.07;1.77;;;4.40;95.40;;;6.08;66.87;99405.00;3083566;46;20518;-67
2024/01/15 02:58:00;;;;;;;6.20;1.57;;;4.40;95.30;;;6.10;66.78;99403.84;3082935;46;20586;-67
2024/01/15 03:00:28;;;;;;;7.50;1.83;;;4.40;95.30;;;6.10;66.82;99393.41;3083593;46;20442;-67
2024/01/15 03:02:57;;;;;;;6.77;1.70;;;4.40;95.30;;;6.09;66.58;99401.41;3083617;46;20445;-67
2024/01/15 03:05:25;;;;;;;4.17;1.37;;;4.40;95.20;;;6.05;66.65;99407.97;3083477;46;20434;-67
2024/01/15 03:07:53;;;;;;;4.00;1.33;;;4.40;95.10;;;6.00;66.68;99392.84;3083126;46;20457;-67
2024/01/15 03:10:22;;;;;;;9.10;1.80;;;4.40;95.10;;;5.98;66.82;99399.22;3083033;46;20544;-67
2024/01/15 03:12:50;;;;;;;5.43;1.67;;;4.40;95.10;;;5.94;66.75;99395.38;3082862;46;21149;-67
2024/01/15 03:15:19;;;;;;;7.37;1.67;;;4.40;95.00;;;5.89;66.75;99405.53;3083196;46;20458;-66
2024/01/15 03:17:47;;;;;;;9.53;2.10;;;4.40;95.20;;;5.84;66.68;99398.22;3082586;46;20443;-67
2024/01/15 03:20:15;;;;;;;4.17;1.70;;;4.40;94.90;;;5.80;66.75;99403.94;3083128;46;20442;-67
2024/01/15 03:22:56;;;;;;;2.37;1.00;;;4.30;94.90;;;5.74;66.73;99402.03;3082131;46;21047;-67
2024/01/15 03:25:25;;;;;;;5.07;1.43;;;4.30;94.90;;;5.68;66.86;99400.94;3082203;46;20499;-67
2024/01/15 03:27:53;;;;;;;3.27;1.20;;;4.20;94.90;;;5.67;66.83;99403.72;3081454;46;20445;-67
2024/01/15 03:30:22;;;;;;;6.17;1.60;;;4.20;94.90;;;5.65;67.16;99406.53;3081716;46;20430;-67
2024/01/15 03:32:50;;;;;;;3.90;1.77;;;4.10;95.00;;;5.66;67.20;99404.72;3081652;46;21084;-67
2024/01/15 03:35:19;;;;;;;8.00;2.10;;;4.10;95.10;;;5.65;67.21;99409.13;3081940;46;20581;-67
2024/01/15 03:37:47;;;;;;;5.63;1.83;;;4.10;95.20;;;5.64;67.20;99393.63;3081406;46;21149;-67
2024/01/15 03:40:16;;;;;;;7.70;1.63;;;4.10;95.60;;;5.58;67.18;99386.53;3081804;46;20434;-67
2024/01/15 03:42:49;;;;;;;4.93;1.17;;;4.10;95.20;;;5.52;67.47;99382.00;3081812;46;20575;-67
2024/01/15 03:45:17;;;;;;;4.50;1.50;;;4.10;95.30;;;5.48;67.46;99381.53;3081566;46;20579;-67
2024/01/15 03:47:45;;;;;;;4.20;1.43;;;4.00;95.20;;;5.47;67.57;99395.56;3081550;46;20449;-67
2024/01/15 03:50:14;;;;;;;7.53;1.63;;;4.00;95.30;;;5.48;67.70;99405.84;3081300;46;20454;-67
2024/01/15 03:52:42;;;;;;;5.17;1.67;;;4.00;95.40;;;5.51;67.74;99390.81;3081571;46;20491;-67
2024/01/15 03:55:11;;;;;;;5.97;1.30;;;4.00;95.40;;;5.53;67.72;99394.06;3082319;46;20610;-67
2024/01/15 03:57:39;;;;;;;6.37;1.20;;;4.00;95.50;;;5.54;67.62;99400.91;3082345;46;20465;-65
2024/01/15 04:00:08;;;;;;;3.70;1.37;;;4.00;95.50;;;5.53;67.93;99399.28;3082881;46;20992;-66
2024/01/15 04:02:37;;;;;;;3.83;1.70;;;4.00;95.50;;;5.51;67.57;99396.03;3082641;46;20430;-67
2024/01/15 04:05:06;;;;;;;6.30;1.73;;;4.00;95.50;;;5.51;67.61;99402.06;3082742;46;20503;-67
2024/01/15 04:07:34;;;;;;;5.70;1.67;;;4.00;95.50;;;5.51;67.87;99396.03;3082311;46;20493;-67
2024/01/15 04:10:03;;;;;;;10.90;2.23;;;4.00;95.50;;;5.53;67.87;99404.50;3082545;46;20483;-67
2024/01/15 04:12:31;;;;;;;6.97;1.53;;;4.00;95.60;;;5.52;67.99;99410.69;3082530;46;21036;-69
2024/01/15 04:14:59;;;;;;;4.00;1.70;;;4.00;95.50;;;5.53;68.01;99399.28;3082789;46;20428;-67
2024/01/15 04:17:28;;;;;;;5.17;1.97;;;4.00;95.60;;;5.53;68.03;99410.53;3082149;46;20467;-67
2024/01/15 04:19:57;;;;;;;6.50;1.80;;;4.00;95.50;;;5.59;67.90;99430.69;3082537;46;20435;-67
2024/01/15 04:22:26;;;;;;;9.27;1.40;;;4.00;95.60;;;5.65;68.03;99419.56;3082652;46;21068;-67
2024/01/15 04:24:55;;;;;;;10.40;2.17;;;4.00;95.70;;;5.71;67.97;99411.03;3082806;46;20438;-67
2024/01/15 04:27:24;;;;;;;5.80;2.10;;;4.10;95.80;;;5.77;67.95;99406.91;3082067;46;20440;-67
2024/01/15 04:29:52;;;;;;;7.50;1.67;;;4.10;95.80;;;5.79;67.73;99402.31;3082651;46;21047;-67
2024/01/15 04:32:21;;;;;;;7.53;1.63;;;4.10;95.70;;;5.81;67.60;99413.38;3082601;46;20521;-67
2024/01/15 04:34:49;;;;;;;6.40;1.60;;;4.20;95.60;;;5.84;67.58;99405.22;3082049;46;20434;-67
2024/01/15 04:37:18;;;;;;;7.03;1.50;;;4.20;95.60;;;5.88;67.59;99414.34;3082034;46;21043;-68
2024/01/15 04:39:46;;;;;;;4.93;1.40;;;4.30;95.60;;;5.89;67.41;99415.97;3082454;46;20486;-67
2024/01/15 04:42:15;;;;;;;8.30;1.53;;;4.20;95.40;;;5.91;67.37;99419.22;3082295;46;20972;-67
2024/01/15 04:44:43;;;;;;;8.27;2.17;;;4.30;95.40;;;5.95;67.38;99410.03;3082668;46;20438;-67
2024/01/15 04:47:11;;;;;;;8.30;1.93;;;4.30;95.40;;;5.94;67.25;99409.22;3081745;46;20509;-66
2024/01/15 04:49:40;;;;;;;9.77;2.27;;;4.30;95.30;;;5.97;67.08;99423.72;3081855;46;20552;-68
2024/01/15 04:52:10;;;;;;;8.27;2.10;;;4.30;95.30;;;5.99;67.15;99409.50;3082222;46;20554;-67
2024/01/15 04:54:38;;;;;;;5.40;1.67;;;4.40;95.40;;;6.00;66.90;99413.72;3082249;46;20463;-67
2024/01/15 04:57:07;;;;;;;6.03;1.80;;;4.40;95.30;;;5.99;67.08;99408.69;3081944;46;20446;-67
2024/01/15 04:59:35;;;;;;;7.20;2.60;;;4.40;95.20;;;5.96;67.01;99401.22;3081910;46;20441;-67
2024/01/15 05:02:03;;;;;;;11.13;2.30;;;4.40;95.20;;;5.91;67.13;99399.13;3081945;46;20548;-67
2024/01/15 05:04:32;;;;;;;8.77;2.23;;;4.30;95.10;;;5.84;66.89;99386.94;3082159;46;20542;-69
2024/01/15 05:07:01;;;;;;;5.37;1.77;;;4.40;95.10;;;5.78;67.00;99398.88;3080901;46;20429;-67
2024/01/15 05:09:30;;;;;;;7.40;1.60;;;4.30;95.00;;;5.74;67.18;99397.63;3082165;46;21059;-67
2024/01/15 05:11:59;;;;;;;8.53;1.70;;;4.30;95.10;;;5.71;67.31;99397.16;3081908;46;21005;-67
2024/01/15 05:14:27;;;;;;;7.13;1.33;;;4.20;95.10;;;5.69;67.24;99399.13;3081886;46;20428;-67
2024/01/15 05:16:56;;;;;;;5.90;2.10;;;4.20;95.10;;;5.65;67.15;99403.09;3081697;46;20618;-67
2024/01/15 05:19:24;;;;;;;5.33;1.93;;;4.20;95.10;;;5.62;67.37;99408.66;3082001;46;20438;-67
2024/01/15 05:21:53;;;;;;;6.33;1.63;;;4.20;95.20;;;5.61;67.44;99407.84;3081984;46;21007;-69
2024/01/15 05:24:21;;;;;;;7.30;1.80;;;4.10;95.20;;;5.62;67.59;99400.81;3082092;46;20492;-67
2024/01/15 05:26:49;;;;;;;6.00;1.50;;;4.10;95.40;;;5.66;67.71;99400.28;3081820;46;20482;-67
2024/01/15 05:29:18;;;;;;;7.83;1.77;;;4.10;95.50;;;5.67;67.63;99396.72;3081959;46;21074;-67
2024/01/15 05:31:46;;;;;;;4.87;1.40;;;4.10;95.50;;;5.69;67.77;99399.13;3081594;46;20438;-64
2024/01/15 05:34:15;;;;;;;9.90;2.47;;;4.10;95.60;;;5.69;67.75;99393.91;3081959;46;21136;-67
2024/01/15 05:36:43;;;;;;;8.57;1.70;;;4.10;95.60;;;5.67;67.88;99386.28;3081521;46;20521;-68
2024/01/15 05:39:12;;;;;;;8.03;1.70;;;4.10;95.50;;;5.65;67.70;99390.03;3081841;46;21103;-67
2024/01/15 05:41:40;;;;;;;6.80;1.83;;;4.10;95.90;;;5.65;67.84;99377.00;3081509;46;20457;-67
2024/01/15 05:44:09;;;;;;;11.90;2.23;;;4.10;95.70;;;5.63;67.92;99384.19;3082036;46;20567;-67
2024/01/15 05:46:38;;;;;;;4.63;1.80;;;4.10;95.60;;;5.63;67.83;99392.03;3081515;46;20431;-66
2024/01/15 05:49:06;;;;;;;10.60;1.60;;;4.10;95.60;;;5.66;67.95;99394.28;3081044;46;20497;-67
2024/01/15 05:51:35;;;;;;;4.43;1.50;;;4.10;95.60;;;5.68;67.57;99392.31;3081564;46;21011;-67
2024/01/15 05:54:04;;;;;;;7.07;2.10;;;4.10;95.60;;;5.68;67.64;99403.53;3081366;46;21095;-69
2024/01/15 05:56:32;;;;;;;4.27;1.73;;;4.10;95.60;;;5.73;67.90;99410.88;3081139;46;20430;-67
2024/01/15 05:59:01;;;;;;;5.97;2.27;;;4.10;95.60;;;5.78;67.91;99414.56;3081050;46;20503;-67
2024/01/15 06:01:30;;;;;;;6.73;2.03;;;4.20;95.80;;;5.86;67.64;99408.47;3081233;46;20459;-66
2024/01/15 06:03:58;;;;;;;7.37;1.83;;;4.20;95.60;;;5.89;67.72;99395.09;3081904;46;20434;-67
2024/01/15 06:06:27;;;;;;;9.90;1.60;;;4.20;95.60;;;5.91;67.46;99406.16;3081026;46;20435;-67
2024/01/15 06:08:55;;;;;;;4.97;1.80;;;4.20;95.60;;;5.94;67.50;99403.19;3080896;46;20458;-68
2024/01/15 06:11:30;;;;;;;10.80;2.10;;;4.20;95.60;;;5.96;67.56;99412.47;3081104;46;20530;-67
2024/01/15 06:14:00;;;;;;;8.90;2.50;;;4.30;95.60;;;6.03;67.65;99402.13;3081361;46;20560;-67
2024/01/15 06:16:29;;;;;;;9.60;2.70;;;4.30;95.60;;;6.04;67.27;99398.50;3080936;46;20434;-67
2024/01/15 06:18:57;;;;;;;7.57;1.80;;;4.30;95.50;;;6.03;67.33;99399.50;3080672;46;20462;-67
2024/01/15 06:21:25;;;;;;;6.17;1.97;;;4.40;95.40;;;6.01;67.34;99404.09;3081385;46;20492;-67
2024/01/15 06:23:56;;;;;;;9.23;2.37;;;4.40;95.40;;;5.99;67.12;99396.44;3080988;46;20431;-67
2024/01/15 06:26:24;;;;;;;11.03;3.10;;;4.40;95.40;;;5.96;66.98;99402.03;3080914;46;20459;-68
2024/01/15 06:28:53;;;;;;;12.47;3.00;;;4.40;95.30;;;5.97;67.27;99397.59;3080668;46;20439;-67
2024/01/15 06:31:21;;;;;;;10.67;1.87;;;4.40;95.40;;;5.97;67.15;99387.97;3080783;46;20476;-67
2024/01/15 06:33:50;;;;;;;8.10;1.97;;;4.30;95.30;;;5.93;67.06;99391.94;3081015;46;20445;-67
2024/01/15 06:36:18;;;;;;;9.43;2.00;;;4.40;95.30;;;5.91;67.25;99390.50;3080761;46;20442;-67
2024/01/15 06:38:47;;;;;;;9.93;1.97;;;4.40;95.40;;;5.89;67.21;99389.88;3080574;46;20528;-67
2024/01/15 06:41:15;;;;;;;10.63;2.20;;;4.30;95.20;;;5.88;67.23;99393.44;3080765;46;21005;-68
2024/01/15 06:43:44;;;;;;;5.03;2.40;;;4.30;95.30;;;5.89;67.32;99408.13;3080808;46;20468;-67
2024/01/15 06:46:12;;;;;;;5.30;1.77;;;4.30;95.40;;;5.89;67.37;99395.91;3079957;46;20459;-68
2024/01/15 06:48:42;;;;;;;8.20;1.50;;;4.30;95.50;;;5.94;67.32;99417.03;3080084;46;21107;-67
2024/01/15 06:51:11;;;;;;;7.90;1.53;;;4.30;95.50;;;5.98;67.40;99415.72;3080766;46;21057;-66
2024/01/15 06:53:39;;;;;;;9.93;2.33;;;4.30;95.50;;;6.03;67.39;99425.63;3080864;46;20519;-67
2024/01/15 06:56:08;;;;;;;4.50;1.80;;;4.40;95.60;;;6.06;67.37;99417.44;3080385;46;20495;-65
2024/01/15 06:58:36;;;;;;;4.80;2.43;;;4.40;95.60;;;6.09;67.27;99422.28;3079994;46;20446;-67
2024/01/15 07:01:05;;;;;;;3.67;1.30;;;4.40;95.60;;;6.09;67.12;99427.50;3080651;43;20436;-67
2024/01/15 07:03:34;;;;;;;3.67;1.60;;;4.40;95.50;;;6.10;67.12;99426.53;3080125;46;21111;-68
2024/01/15 07:06:03;;;;;;;8.23;2.33;;;4.40;95.40;;;6.08;67.09;99436.34;3080200;46;20686;-67
2024/01/15 07:08:31;;;;;;;5.70;1.70;;;4.40;95.50;;;6.07;67.05;99435.53;3079818;46;20491;-67
2024/01/15 07:10:59;;;;;;;6.30;1.87;;;4.40;95.50;;;6.07;66.98;99439.94;3080598;46;20548;-67
2024/01/15 07:13:28;;;;;;;5.33;1.33;;;4.40;95.40;;;6.05;66.83;99431.47;3079644;46;20484;-67
2024/01/15 07:15:57;;;;;;;4.73;1.77;;;4.40;95.40;;;6.03;66.90;99441.28;3080417;46;20434;-67
2024/01/15 07:18:25;;;;;;;4.13;1.37;;;4.40;95.40;;;6.00;66.88;99449.47;3079977;46;20443;-67
2024/01/15 07:20:54;;;;;;;6.10;1.70;;;4.30;95.20;;;5.97;66.87;99449.81;3080281;46;20522;-67
2024/01/15 07:23:22;;;;;;;3.80;1.80;;;4.30;95.20;;;5.95;66.89;99446.56;3080036;43;21035;-67
2024/01/15 07:25:53;;;;;;;5.53;1.80;;;4.30;95.30;;;5.91;66.78;99445.31;3080403;46;20523;-67
2024/01/15 07:28:22;;;;;;;3.63;1.43;;;4.20;95.30;;;5.85;66.68;99446.00;3079806;46;20440;-67
2024/01/15 07:30:50;;;;;;;2.83;1.13;;;4.20;95.30;;;5.78;66.81;99445.06;3081283;46;20473;-67
2024/01/15 07:33:19;;;;;;;6.73;1.60;;;4.10;95.20;;;5.70;66.76;99458.19;3083194;46;20555;-67
2024/01/15 07:35:48;;;;;;;3.53;1.33;;;4.10;95.30;;;5.67;67.15;99454.13;3082679;46;20507;-67
2024/01/15 07:38:16;;;;;;;6.87;2.67;;;4.10;95.50;;;5.65;67.10;99437.03;3082220;46;20537;-67
2024/01/15 07:40:44;;;;;;;4.27;1.80;;;4.00;95.40;;;5.63;67.16;99441.59;3080705;46;20532;-67
2024/01/15 07:43:13;;;;;;;4.10;2.10;;;4.00;95.50;;;5.58;67.25;99443.94;3080456;46;20482;-67
2024/01/15 07:45:41;;;;;;;7.30;1.90;;;4.00;95.50;;;5.53;67.32;99435.81;3081797;46;20478;-67
2024/01/15 07:48:12;;;;;;;4.43;1.77;;;4.00;95.50;;;5.49;67.44;99446.59;3081206;46;20434;-67
2024/01/15 07:50:40;;;;;;;4.90;2.20;;;3.90;95.60;;;5.49;67.49;99451.81;3082012;46;20446;-66
2024/01/15 07:53:09;;;;;;;6.43;2.60;;;3.90;95.70;;;5.52;67.72;99449.81;3082514;46;20553;-67
2024/01/15 07:55:37;;;;;;;3.83;2.00;;;3.90;95.80;;;5.57;67.72;99461.38;3082638;46;20461;-66
2024/01/15 07:58:05;;;;;;;7.70;3.17;;;3.90;96.00;;;5.64;67.79;99458.88;3081828;46;20557;-68
2024/01/15 08:00:43;;;;;;;7.27;2.30;;;3.90;96.10;;;5.70;67.84;99469.44;3082295;46;20933;-66
2024/01/15 08:03:12;;;;;;;11.63;2.40;;;4.00;96.30;;;5.75;67.74;99466.31;3082524;46;20987;-67
2024/01/15 08:05:41;;;;;;;8.87;2.47;;;4.00;96.20;;;5.80;67.68;99469.22;3082747;46;20438;-67
2024/01/15 08:08:09;;;;;;;5.13;2.47;;;4.00;96.20;;;5.85;67.73;99470.31;3081951;46;21130;-65
2024/01/15 08:10:38;;;;;;;9.87;2.13;;;4.00;96.20;;;5.90;67.85;99467.19;3082321;46;20559;-67
2024/01/15 08:13:08;;;;;;;6.67;1.70;;;4.10;96.20;;;5.92;67.76;99462.63;3082364;46;20434;-67
2024/01/15 08:15:36;;;;;;;7.23;2.07;;;4.10;96.00;;;5.96;67.65;99458.66;3081171;43;20427;-67
2024/01/15 08:18:05;;;;;;;5.13;1.70;;;4.20;96.00;;;5.96;67.38;99448.22;3081439;46;20559;-67
2024/01/15 08:20:34;;;;;;;5.73;1.87;;;4.20;95.80;;;5.95;67.09;99454.41;3082248;46;20458;-67
2024/01/15 08:23:03;;;;;;;11.07;2.70;;;4.20;95.60;;;5.94;67.10;99456.19;3080639;46;20506;-67
2024/01/15 08:25:31;;;;;;;5.07;1.73;;;4.20;95.50;;;5.93;67.28;99456.38;3082112;46;20454;-65
2024/01/15 08:27:59;;;;;;;4.47;1.73;;;4.20;95.50;;;5.90;67.02;99448.91;3081199;43;20513;-67
2024/01/15 08:30:28;;;;;;;8.47;2.03;;;4.20;95.40;;;5.87;66.80;99464.94;3080852;46;20488;-67
2024/01/15 08:32:57;;;;;;;9.03;1.90;;;4.20;95.10;;;5.84;66.91;99445.22;3081224;46;21388;-67
2024/01/15 08:35:35;;;;;;;5.83;1.43;;;4.20;95.20;;;5.82;66.75;99456.78;3082184;46;20569;-65
2024/01/15 08:38:03;;;;;;;5.53;1.50;;;4.20;95.10;;;5.78;66.77;99447.66;3081450;46;20474;-67
2024/01/15 08:40:31;;;;;;;3.43;1.20;;;4.20;95.00;;;5.77;66.71;99459.13;3081106;43;20492;-67
2024/01/15 08:43:01;;;;;;;8.30;1.63;;;4.20;95.00;;;5.76;66.90;99458.28;3080887;46;20438;-67
2024/01/15 08:45:30;;;;;;;4.50;1.93;;;4.20;95.10;;;5.79;67.06;99462.34;3079701;46;20457;-68
2024/01/15 08:47:59;;;;;;;4.63;1.63;;;4.20;95.10;;;5.80;66.87;99469.22;3080244;46;20521;-67
2024/01/15 08:50:27;;;;;;;5.63;1.80;;;4.10;95.10;;;5.85;67.22;99485.16;3080363;46;21081;-66
2024/01/15 08:52:59;;;;;;;5.43;1.70;;;4.10;95.50;;;5.86;66.61;99489.41;3081199;46;20462;-67
2024/01/15 08:55:27;;;;;;;7.07;2.00;;;4.20;95.10;;;5.88;66.81;99487.44;3081099;46;20450;-67
2024/01/15 08:57:55;;;;;;;9.30;1.90;;;4.20;95.10;;;5.95;66.82;99485.75;3080163;46;20524;-68
2024/01/15 09:00:24;;;;;;;5.57;1.80;;;4.20;95.20;;;6.01;66.70;99477.22;3080940;46;20462;-67
2024/01/15 09:02:52;;;;;;;6.77;1.70;;;4.20;95.20;;;6.08;66.56;99467.69;3080892;46;20446;-67
2024/01/15 09:05:21;;;;;;;10.67;2.50;;;4.30;95.20;;;6.10;66.38;99469.13;3080747;46;20423;-68
2024/01/15 09:07:51;;;;;;;5.63;1.80;;;4.30;95.00;;;6.13;66.18;99470.59;3080793;46;20534;-67
2024/01/15 09:10:20;;;;;;;10.47;2.30;;;4.40;95.00;;;6.16;66.17;99475.44;3081656;46;20544;-68
2024/01/15 09:12:51;;;;;;;7.70;1.80;;;4.40;94.90;;;6.20;66.11;99470.69;3081004;46;20431;-67
2024/01/15 09:15:20;;;;;;;10.43;1.80;;;4.40;94.80;;;6.26;66.08;99476.00;3080059;46;21083;-67
2024/01/15 09:17:48;;;;;;;7.30;2.10;;;4.40;94.80;;;6.27;65.68;99472.41;3080162;46;20435;-67
2024/01/15 09:20:18;;;;;;;6.27;2.03;;;4.50;94.80;;;6.33;65.50;99460.41;3080855;46;20458;-67
2024/01/15 09:22:46;;;;;;;6.97;1.73;;;4.50;94.70;;;6.33;65.07;99469.06;3081872;46;21098;-67
2024/01/15 09:25:15;;;;;;;7.70;2.10;;;4.50;94.40;;;6.33;65.29;99473.47;3081529;46;20459;-67
2024/01/15 09:27:43;;;;;;;4.00;1.40;;;4.50;94.30;;;6.36;65.23;99471.34;3080708;43;20459;-67
2024/01/15 09:30:13;;;;;;;5.90;1.93;;;4.60;94.50;;;6.39;65.38;99480.63;3080952;46;20524;-67
2024/01/15 09:32:42;;;;;;;13.53;3.80;;;4.60;94.40;;;6.45;65.02;99475.47;3081098;46;20507;-67
2024/01/15 09:35:10;;;;;;;7.17;2.40;;;4.60;94.40;;;6.51;64.87;99481.81;3081756;46;20434;-70
2024/01/15 09:37:40;;;;;;;5.73;2.53;;;4.60;94.40;;;6.57;64.85;99505.41;3081140;46;20475;-67
2024/01/15 09:40:16;;;;;;;6.10;2.10;;;4.70;94.50;;;6.60;64.72;99504.25;3080517;46;20478;-68
2024/01/15 09:42:46;;;;;;;5.20;2.00;;;4.70;94.40;;;6.53;64.48;99495.50;3079940;46;20518;-67
2024/01/15 09:45:15;;;;;;;11.07;3.00;;;4.70;94.20;;;6.45;64.61;99492.94;3080013;46;20439;-67
2024/01/15 09:47:44;;;;;;;4.27;1.93;;;4.70;94.30;;;6.39;64.88;99486.66;3081161;46;20464;-67
2024/01/15 09:50:14;;;;;;;6.67;2.37;;;4.70;94.30;;;6.35;64.92;99490.59;3080118;46;20643;-66
2024/01/15 09:52:45;;;;;;;9.07;2.07;;;4.70;94.40;;;6.33;65.19;99482.13;3078489;46;20438;-67
2024/01/15 09:55:16;;;;;;;8.63;3.00;;;4.70;94.50;;;6.33;65.07;99492.59;3080537;46;20434;-67
2024/01/15 09:57:46;;;;;;;8.43;3.90;;;4.60;94.60;;;6.39;65.34;99491.88;3080541;43;21091;-67
2024/01/15 10:00:18;;;;;;;8.13;2.60;;;4.60;94.70;;;6.45;65.49;99496.38;3080997;46;20521;-67
2024/01/15 10:02:56;;;;;;;3.23;1.60;;;4.60;94.80;;;6.46;65.26;99487.56;3080437;46;20482;-69
2024/01/15 10:05:25;;;;;;;10.30;5.07;;;4.70;94.80;;;6.47;65.08;99496.19;3080751;46;20492;-67
2024/01/15 10:07:57;;;;;;;5.37;3.03;;;4.70;94.70;;;6.47;65.12;99489.16;3080030;46;20450;-67
2024/01/15 10:10:25;;;;;;;7.10;1.97;;;4.70;94.80;;;6.52;65.23;99492.06;3080715;46;20457;-67
2024/01/15 10:12:55;;;;;;;6.50;1.60;;;4.70;94.80;;;6.54;65.14;99487.47;3078889;46;20434;-67
2024/01/15 10:15:23;;;;;;;3.13;1.27;;;4.70;94.70;;;6.56;65.15;99482.06;3079771;46;20454;-67
2024/01/15 10:17:52;;;;;;;6.37;1.97;;;4.70;94.70;;;6.57;65.14;99488.91;3080714;46;20529;-67
2024/01/15 10:20:23;;;;;;;4.60;1.90;;;4.80;94.60;;;6.57;64.99;99489.72;3079463;46;20454;-68
2024/01/15 10:22:52;;;;;;;5.20;1.60;;;4.70;94.50;;;6.56;65.18;99482.06;3079870;46;20459;-67
2024/01/15 10:25:25;;;;;;;5.17;2.03;;;4.80;94.50;;;6.59;64.95;99477.28;3080225;46;20472;-67
2024/01/15 10:28:02;;;;;;;8.13;1.80;;;4.80;94.50;;;6.59;64.95;99484.31;3080275;46;20592;-67
2024/01/15 10:30:33;;;;;;;2.90;1.53;;;4.80;94.40;;;6.60;64.83;99483.34;3080621;46;20427;-67
2024/01/15 10:33:04;;;;;;;6.50;2.30;;;4.80;94.30;;;6.59;64.82;99474.66;3080878;46;20431;-67
2024/01/15 10:35:35;;;;;;;2.80;1.30;;;4.80;94.40;;;6.60;64.76;99471.06;3080835;46;20550;-68
2024/01/15 10:38:05;;;;;;;7.10;2.27;;;4.80;94.30;;;6.62;64.66;99479.56;3080317;46;20525;-67
2024/01/15 10:40:34;;;;;;;6.97;1.93;;;4.80;94.30;;;6.66;64.49;99467.72;3080581;46;20430;-67